createdAt,value
2022-08-04T00:00:44.840Z,100740.56
2022-08-04T00:03:14.757Z,100735.00
2022-08-04T00:05:54.158Z,100734.38
2022-08-04T00:08:21.299Z,100739.16
2022-08-04T00:10:55.204Z,100735.84
2022-08-04T00:13:23.425Z,100735.97
2022-08-04T00:15:52.363Z,100730.38
2022-08-04T00:18:22.996Z,100731.41
2022-08-04T00:20:53.250Z,100729.94
2022-08-04T00:23:22.305Z,100734.84
2022-08-04T00:25:49.733Z,100736.28
2022-08-04T00:28:17.123Z,100725.97
2022-08-04T00:30:45.409Z,100733.16
2022-08-04T00:33:13.714Z,100741.47
2022-08-04T00:35:40.985Z,100737.88
2022-08-04T00:38:08.598Z,100733.00
2022-08-04T00:40:44.965Z,100740.91
2022-08-04T00:43:21.529Z,100737.47
2022-08-04T00:46:15.297Z,100739.00
2022-08-04T00:48:44.153Z,100732.38
2022-08-04T00:51:29.563Z,100740.47
2022-08-04T00:54:19.378Z,100735.56
2022-08-04T00:56:46.551Z,100744.28
2022-08-04T00:59:32.219Z,100723.47
2022-08-04T01:01:59.482Z,100730.06
2022-08-04T01:04:40.732Z,100730.47
2022-08-04T01:07:07.969Z,100735.78
2022-08-04T01:09:50.189Z,100726.75
2022-08-04T01:12:26.205Z,100737.91
2022-08-04T01:15:05.854Z,100731.19
2022-08-04T01:17:36.074Z,100734.03
2022-08-04T01:20:08.633Z,100731.91
2022-08-04T01:22:47.946Z,100735.78
2022-08-04T01:25:34.002Z,100736.78
2022-08-04T01:28:14.693Z,100725.59
2022-08-04T01:30:46.125Z,100720.53
2022-08-04T01:33:14.364Z,100730.75
2022-08-04T01:35:48.478Z,100723.72
2022-08-04T01:38:21.799Z,100728.69
2022-08-04T01:40:53.007Z,100720.66
2022-08-04T01:43:20.496Z,100720.19
2022-08-04T01:45:51.748Z,100723.94
2022-08-04T01:48:24.069Z,100717.56
2022-08-04T01:50:56.936Z,100721.31
2022-08-04T01:53:30.131Z,100711.53
2022-08-04T01:55:57.763Z,100710.34
2022-08-04T01:58:25.636Z,100715.81
2022-08-04T02:00:57.770Z,100715.41
2022-08-04T02:04:21.553Z,100718.28
2022-08-04T02:06:31.711Z,100720.81
2022-08-04T02:09:05.752Z,100721.41
2022-08-04T02:11:32.914Z,100725.31
2022-08-04T02:14:03.227Z,100721.59
2022-08-04T02:16:52.749Z,100725.63
2022-08-04T02:19:23.300Z,100727.22
2022-08-04T02:21:55.748Z,100722.63
2022-08-04T02:24:26.481Z,100723.03
2022-08-04T02:26:54.093Z,100724.41
2022-08-04T02:29:27.287Z,100717.47
2022-08-04T02:32:04.773Z,100716.47
2022-08-04T02:34:53.073Z,100724.78
2022-08-04T02:37:20.919Z,100723.19
2022-08-04T02:39:50.171Z,100717.47
2022-08-04T02:42:17.597Z,100717.38
2022-08-04T02:44:51.381Z,100715.50
2022-08-04T02:47:20.597Z,100715.00
2022-08-04T02:49:50.575Z,100717.31
2022-08-04T02:52:21.538Z,100717.44
2022-08-04T02:54:51.219Z,100707.97
2022-08-04T02:57:19.071Z,100717.00
2022-08-04T02:59:46.370Z,100711.00
2022-08-04T03:02:15.266Z,100708.44
2022-08-04T03:04:57.709Z,100710.03
2022-08-04T03:07:43.312Z,100709.38
2022-08-04T03:10:17.867Z,100705.03
2022-08-04T03:13:05.238Z,100702.03
2022-08-04T03:15:32.416Z,100703.28
2022-08-04T03:18:18.196Z,100714.50
2022-08-04T03:21:03.925Z,100705.22
2022-08-04T03:23:33.763Z,100706.06
2022-08-04T03:26:19.756Z,100700.75
2022-08-04T03:28:49.944Z,100706.22
2022-08-04T03:31:35.554Z,100701.19
2022-08-04T03:34:26.700Z,100704.38
2022-08-04T03:37:03.196Z,100701.72
2022-08-04T03:39:58.820Z,100701.88
2022-08-04T03:42:52.521Z,100703.75
2022-08-04T03:45:42.987Z,100707.25
2022-08-04T03:48:16.220Z,100703.19
2022-08-04T03:51:35.124Z,100696.31
2022-08-04T03:54:10.251Z,100700.06
2022-08-04T03:56:55.375Z,100695.66
2022-08-04T03:59:31.771Z,100704.91
2022-08-04T04:02:02.450Z,100708.50
2022-08-04T04:04:58.311Z,100699.16
2022-08-04T04:07:40.459Z,100698.50
2022-08-04T04:10:09.868Z,100700.22
2022-08-04T04:12:46.287Z,100707.09
2022-08-04T04:15:31.624Z,100700.19
2022-08-04T04:18:16.440Z,100709.59
2022-08-04T04:20:54.739Z,100708.00
2022-08-04T04:23:25.012Z,100703.81
2022-08-04T04:25:58.340Z,100702.94
2022-08-04T04:28:45.621Z,100711.56
2022-08-04T04:31:16.583Z,100710.97
2022-08-04T04:33:54.215Z,100722.13
2022-08-04T04:36:36.554Z,100711.56
2022-08-04T04:39:06.502Z,100719.59
2022-08-04T04:41:48.039Z,100720.75
2022-08-04T04:44:15.725Z,100720.03
2022-08-04T04:46:56.017Z,100726.00
2022-08-04T04:49:31.345Z,100717.28
2022-08-04T04:52:03.719Z,100720.47
2022-08-04T04:54:37.080Z,100726.25
2022-08-04T04:57:13.583Z,100722.84
2022-08-04T04:59:47.640Z,100725.13
2022-08-04T05:02:20.827Z,100729.59
2022-08-04T05:05:02.981Z,100720.13
2022-08-04T05:07:57.625Z,100726.16
2022-08-04T05:10:48.675Z,100725.72
2022-08-04T05:14:38.767Z,100724.63
2022-08-04T05:16:26.216Z,100733.97
2022-08-04T05:19:12.408Z,100726.66
2022-08-04T05:21:47.131Z,100731.75
2022-08-04T05:24:16.829Z,100724.13
2022-08-04T05:26:45.911Z,100728.16
2022-08-04T05:29:33.287Z,100731.78
2022-08-04T05:32:04.959Z,100731.63
2022-08-04T05:34:35.653Z,100728.78
2022-08-04T05:37:08.088Z,100735.72
2022-08-04T05:39:47.280Z,100739.19
2022-08-04T05:42:15.417Z,100740.19
2022-08-04T05:44:46.379Z,100740.56
2022-08-04T05:47:16.523Z,100740.91
2022-08-04T05:49:44.819Z,100744.63
2022-08-04T05:52:12.561Z,100740.25
2022-08-04T05:54:40.317Z,100732.44
2022-08-04T05:57:08.617Z,100739.69
2022-08-04T05:59:37.790Z,100733.09
2022-08-04T06:02:05.897Z,100735.13
2022-08-04T06:04:38.681Z,100731.66
2022-08-04T06:07:06.374Z,100732.91
2022-08-04T06:09:33.611Z,100736.38
2022-08-04T06:12:04.372Z,100722.41
2022-08-04T06:14:40.678Z,100728.03
2022-08-04T06:18:33.713Z,100728.47
2022-08-04T06:20:17.804Z,100727.97
2022-08-04T06:22:46.458Z,100735.09
2022-08-04T06:25:15.753Z,100730.25
2022-08-04T06:27:43.328Z,100729.22
2022-08-04T06:30:14.122Z,100729.78
2022-08-04T06:32:49.827Z,100726.03
2022-08-04T06:35:17.979Z,100733.91
2022-08-04T06:37:48.823Z,100735.50
2022-08-04T06:40:31.480Z,100734.44
2022-08-04T06:43:07.201Z,100741.31
2022-08-04T06:45:36.015Z,100741.25
2022-08-04T06:48:05.115Z,100743.78
2022-08-04T06:51:24.985Z,100743.72
2022-08-04T06:53:21.949Z,100741.84
2022-08-04T06:55:49.393Z,100744.25
2022-08-04T06:58:17.168Z,100757.16
2022-08-04T07:00:45.848Z,100749.56
2022-08-04T07:03:13.675Z,100746.59
2022-08-04T07:05:41.085Z,100753.94
2022-08-04T07:08:10.392Z,100740.59
2022-08-04T07:10:38.308Z,100743.56
2022-08-04T07:13:07.301Z,100742.03
2022-08-04T07:15:35.835Z,100740.13
2022-08-04T07:18:04.814Z,100741.84
2022-08-04T07:20:34.807Z,100736.59
2022-08-04T07:23:07.117Z,100740.31
2022-08-04T07:26:00.991Z,100742.81
2022-08-04T07:28:24.259Z,100735.75
2022-08-04T07:30:52.649Z,100732.78
2022-08-04T07:33:20.181Z,100737.06
2022-08-04T07:36:10.646Z,100741.81
2022-08-04T07:38:37.640Z,100736.00
2022-08-04T07:41:35.664Z,100738.97
2022-08-04T07:44:03.467Z,100741.25
2022-08-04T07:46:31.268Z,100747.09
2022-08-04T07:49:01.845Z,100745.94
2022-08-04T07:51:30.651Z,100735.16
2022-08-04T07:53:58.505Z,100745.66
2022-08-04T07:56:28.955Z,100741.13
2022-08-04T07:58:56.294Z,100740.72
2022-08-04T08:01:24.480Z,100743.13
2022-08-04T08:03:53.044Z,100737.50
2022-08-04T08:06:32.804Z,100722.63
2022-08-04T08:09:13.419Z,100729.53
2022-08-04T08:12:37.423Z,100728.56
2022-08-04T08:14:34.978Z,100730.50
2022-08-04T08:17:03.249Z,100737.94
2022-08-04T08:19:40.978Z,100725.63
2022-08-04T08:22:08.271Z,100724.28
2022-08-04T08:24:36.133Z,100715.50
2022-08-04T08:27:07.347Z,100720.53
2022-08-04T08:29:35.242Z,100722.75
2022-08-04T08:32:08.056Z,100725.34
2022-08-04T08:34:37.269Z,100727.59
2022-08-04T08:37:04.537Z,100725.66
2022-08-04T08:39:39.148Z,100720.00
2022-08-04T08:42:25.221Z,100721.38
2022-08-04T08:45:12.689Z,100720.31
2022-08-04T08:48:06.322Z,100717.53
2022-08-04T08:50:43.088Z,100714.22
2022-08-04T08:53:22.875Z,100718.16
2022-08-04T08:56:02.498Z,100718.31
2022-08-04T08:58:44.269Z,100714.13
2022-08-04T09:01:21.118Z,100711.56
2022-08-04T09:04:07.258Z,100711.34
2022-08-04T09:06:53.258Z,100715.13
2022-08-04T09:09:39.157Z,100709.13
2022-08-04T09:12:06.439Z,100715.09
2022-08-04T09:14:40.149Z,100707.59
2022-08-04T09:17:19.021Z,100715.97
2022-08-04T09:19:51.530Z,100711.84
2022-08-04T09:22:25.090Z,100708.47
2022-08-04T09:25:15.537Z,100709.19
2022-08-04T09:27:58.557Z,100709.22
2022-08-04T09:30:46.682Z,100710.47
2022-08-04T09:33:17.164Z,100714.34
2022-08-04T09:35:59.710Z,100707.22
2022-08-04T09:38:30.872Z,100709.06
2022-08-04T09:41:36.538Z,100708.16
2022-08-04T09:44:52.419Z,100709.41
2022-08-04T09:46:53.609Z,100710.41
2022-08-04T09:49:26.929Z,100702.59
2022-08-04T09:52:01.180Z,100702.84
2022-08-04T09:54:30.515Z,100699.25
2022-08-04T09:57:07.136Z,100694.41
2022-08-04T09:59:41.164Z,100691.84
2022-08-04T10:02:10.540Z,100697.22
2022-08-04T10:04:39.613Z,100692.78
2022-08-04T10:07:18.385Z,100685.34
2022-08-04T10:09:48.877Z,100677.41
2022-08-04T10:12:23.910Z,100674.09
2022-08-04T10:15:06.501Z,100676.47
2022-08-04T10:17:39.743Z,100676.00
2022-08-04T10:20:45.710Z,100674.66
2022-08-04T10:23:32.935Z,100670.56
2022-08-04T10:26:23.300Z,100659.72
2022-08-04T10:28:53.568Z,100661.84
2022-08-04T10:31:24.662Z,100659.25
2022-08-04T10:33:54.679Z,100664.19
2022-08-04T10:36:24.259Z,100662.28
2022-08-04T10:38:57.828Z,100666.28
2022-08-04T10:41:43.463Z,100658.00
2022-08-04T10:44:28.704Z,100655.28
2022-08-04T10:47:20.875Z,100650.56
2022-08-04T10:49:54.873Z,100658.97
2022-08-04T10:52:31.468Z,100656.47
2022-08-04T10:55:01.791Z,100661.56
2022-08-04T10:57:31.999Z,100654.69
2022-08-04T11:00:10.453Z,100651.53
2022-08-04T11:02:41.942Z,100659.91
2022-08-04T11:05:21.892Z,100652.97
2022-08-04T11:07:59.815Z,100651.28
2022-08-04T11:10:31.444Z,100655.81
2022-08-04T11:13:01.957Z,100647.66
2022-08-04T11:15:34.538Z,100650.22
2022-08-04T11:18:16.698Z,100642.22
2022-08-04T11:21:07.457Z,100649.16
2022-08-04T11:23:36.684Z,100636.59
2022-08-04T11:26:13.221Z,100638.78
2022-08-04T11:28:46.485Z,100632.91
2022-08-04T11:31:39.965Z,100637.16
2022-08-04T11:34:10.089Z,100636.41
2022-08-04T11:37:13.892Z,100629.44
2022-08-04T11:39:41.845Z,100632.41
2022-08-04T11:42:14.972Z,100640.69
2022-08-04T11:44:49.924Z,100627.53
2022-08-04T11:47:26.400Z,100638.03
2022-08-04T11:50:00.819Z,100636.50
2022-08-04T11:52:28.636Z,100631.06
2022-08-04T11:54:57.136Z,100629.19
2022-08-04T11:57:25.837Z,100623.28
2022-08-04T12:00:12.629Z,100628.69
2022-08-04T12:02:52.202Z,100617.44
2022-08-04T12:05:35.332Z,100613.78
2022-08-04T12:08:12.922Z,100624.97
2022-08-04T12:10:42.152Z,100618.03
2022-08-04T12:13:24.652Z,100614.03
2022-08-04T12:16:03.653Z,100611.94
2022-08-04T12:18:34.761Z,100612.13
2022-08-04T12:21:05.273Z,100611.38
2022-08-04T12:23:36.754Z,100606.13
2022-08-04T12:26:06.498Z,100608.91
2022-08-04T12:28:59.662Z,100606.53
2022-08-04T12:31:26.157Z,100604.44
2022-08-04T12:34:04.879Z,100600.50
2022-08-04T12:36:55.864Z,100599.97
2022-08-04T12:39:25.784Z,100598.78
2022-08-04T12:42:01.106Z,100598.63
2022-08-04T12:44:37.813Z,100601.53
2022-08-04T12:47:36.198Z,100594.25
2022-08-04T12:50:03.696Z,100592.97
2022-08-04T12:55:22.612Z,100599.34
2022-08-04T12:57:50.890Z,100594.72
2022-08-04T13:00:29.574Z,100588.34
2022-08-04T13:03:04.505Z,100585.69
2022-08-04T13:05:32.743Z,100590.03
2022-08-04T13:08:01.219Z,100581.00
2022-08-04T13:10:30.386Z,100581.09
2022-08-04T13:13:00.931Z,100576.81
2022-08-04T13:15:28.564Z,100581.00
2022-08-04T13:17:59.128Z,100576.41
2022-08-04T13:20:30.989Z,100575.84
2022-08-04T13:23:08.968Z,100571.66
2022-08-04T13:26:43.168Z,100569.94
2022-08-04T13:28:34.417Z,100574.78
2022-08-04T13:31:03.096Z,100564.19
2022-08-04T13:33:32.486Z,100562.09
2022-08-04T13:36:00.097Z,100558.22
2022-08-04T13:38:28.216Z,100549.25
2022-08-04T13:41:01.015Z,100547.19
2022-08-04T13:43:50.022Z,100546.47
2022-08-04T13:46:27.151Z,100543.28
2022-08-04T13:49:24.904Z,100537.56
2022-08-04T13:51:57.749Z,100538.16
2022-08-04T13:54:30.674Z,100528.75
2022-08-04T13:57:00.613Z,100531.59
2022-08-04T13:59:33.460Z,100525.63
2022-08-04T14:02:04.657Z,100529.59
2022-08-04T14:04:34.582Z,100531.00
2022-08-04T14:07:01.855Z,100532.19
2022-08-04T14:09:35.349Z,100525.41
2022-08-04T14:12:38.992Z,100524.06
2022-08-04T14:14:56.093Z,100522.56
2022-08-04T14:17:29.932Z,100516.19
2022-08-04T14:19:59.977Z,100518.56
2022-08-04T14:22:27.223Z,100512.38
2022-08-04T14:24:58.569Z,100513.63
2022-08-04T14:27:28.505Z,100514.75
2022-08-04T14:29:55.770Z,100515.47
2022-08-04T14:32:26.069Z,100507.97
2022-08-04T14:34:53.700Z,100501.94
2022-08-04T14:37:22.632Z,100509.09
2022-08-04T14:40:19.293Z,100506.94
2022-08-04T14:42:43.955Z,100506.13
2022-08-04T14:45:12.170Z,100500.69
2022-08-04T14:47:39.653Z,100498.38
2022-08-04T14:50:07.808Z,100497.31
2022-08-04T14:52:37.622Z,100499.63
2022-08-04T14:55:17.864Z,100499.41
2022-08-04T14:58:35.900Z,100502.47
2022-08-04T15:00:34.964Z,100498.25
2022-08-04T15:03:04.336Z,100497.19
2022-08-04T15:06:02.098Z,100493.19
2022-08-04T15:08:21.234Z,100497.47
2022-08-04T15:10:48.539Z,100489.31
2022-08-04T15:13:16.055Z,100490.28
2022-08-04T15:15:43.667Z,100486.25
2022-08-04T15:18:31.233Z,100487.06
2022-08-04T15:21:02.248Z,100486.66
2022-08-04T15:23:31.782Z,100480.28
2022-08-04T15:26:08.338Z,100479.34
2022-08-04T15:28:37.695Z,100478.06
2022-08-04T15:31:10.686Z,100477.84
2022-08-04T15:33:54.556Z,100476.59
2022-08-04T15:36:34.731Z,100476.22
2022-08-04T15:39:01.940Z,100471.28
2022-08-04T15:41:36.459Z,100469.56
2022-08-04T15:44:15.549Z,100470.91
2022-08-04T15:46:47.676Z,100470.50
2022-08-04T15:49:18.832Z,100466.47
2022-08-04T15:51:46.485Z,100464.78
2022-08-04T15:54:16.981Z,100465.06
2022-08-04T15:57:02.618Z,100467.13
2022-08-04T15:59:53.739Z,100463.31
2022-08-04T16:02:37.739Z,100455.63
2022-08-04T16:05:18.250Z,100459.69
2022-08-04T16:07:59.967Z,100453.94
2022-08-04T16:10:37.222Z,100450.69
2022-08-04T16:13:06.514Z,100451.75
2022-08-04T16:15:36.733Z,100455.75
2022-08-04T16:18:04.158Z,100453.00
2022-08-04T16:20:34.287Z,100445.78
2022-08-04T16:23:10.842Z,100446.19
2022-08-04T16:25:51.953Z,100437.41
2022-08-04T16:28:38.561Z,100448.66
2022-08-04T16:31:06.514Z,100437.53
2022-08-04T16:33:43.845Z,100440.44
2022-08-04T16:36:12.600Z,100438.44
2022-08-04T16:38:58.686Z,100445.25
2022-08-04T16:41:46.902Z,100446.63
2022-08-04T16:44:52.221Z,100444.91
2022-08-04T16:47:40.399Z,100441.50
2022-08-04T16:50:08.482Z,100433.81
2022-08-04T16:52:41.911Z,100442.66
2022-08-04T16:55:09.315Z,100440.44
2022-08-04T16:57:38.889Z,100441.09
2022-08-04T17:00:07.429Z,100435.78
2022-08-04T17:02:35.839Z,100439.81
2022-08-04T17:05:07.812Z,100440.84
2022-08-04T17:08:27.305Z,100439.91
2022-08-04T17:10:44.186Z,100436.50
2022-08-04T17:14:03.273Z,100443.03
2022-08-04T17:16:13.789Z,100442.56
2022-08-04T17:18:49.775Z,100452.53
2022-08-04T17:21:19.938Z,100444.81
2022-08-04T17:24:16.039Z,100449.28
2022-08-04T17:26:39.907Z,100450.63
2022-08-04T17:29:08.249Z,100447.91
2022-08-04T17:31:37.788Z,100448.31
2022-08-04T17:34:16.586Z,100440.53
2022-08-04T17:36:47.481Z,100439.19
2022-08-04T17:39:17.718Z,100445.72
2022-08-04T17:41:48.629Z,100447.16
2022-08-04T17:44:16.668Z,100440.31
2022-08-04T17:46:48.190Z,100448.59
2022-08-04T17:49:19.097Z,100450.00
2022-08-04T17:52:05.454Z,100453.38
2022-08-04T17:54:37.254Z,100447.72
2022-08-04T17:57:22.733Z,100452.59
2022-08-04T17:59:57.935Z,100452.59
2022-08-04T18:02:33.235Z,100450.22
2022-08-04T18:05:11.711Z,100445.66
2022-08-04T18:08:39.153Z,100453.28
2022-08-04T18:10:51.910Z,100452.22
2022-08-04T18:13:27.811Z,100455.00
2022-08-04T18:16:05.177Z,100452.22
2022-08-04T18:18:33.141Z,100458.97
2022-08-04T18:21:03.195Z,100454.41
2022-08-04T18:23:33.122Z,100459.66
2022-08-04T18:26:01.755Z,100449.56
2022-08-04T18:28:33.214Z,100453.09
2022-08-04T18:31:02.129Z,100458.53
2022-08-04T18:33:40.174Z,100458.69
2022-08-04T18:36:33.426Z,100447.84
2022-08-04T18:38:59.221Z,100454.03
2022-08-04T18:42:01.770Z,100455.34
2022-08-04T18:44:29.011Z,100465.81
2022-08-04T18:46:56.900Z,100459.25
2022-08-04T18:50:58.918Z,100463.81
2022-08-04T18:54:58.865Z,100468.47
2022-08-04T18:57:58.660Z,100474.19
2022-08-04T19:00:19.839Z,100481.63
2022-08-04T19:02:47.691Z,100479.53
2022-08-04T19:05:17.586Z,100477.06
2022-08-04T19:08:02.135Z,100475.41
2022-08-04T19:10:34.771Z,100479.56
2022-08-04T19:13:02.084Z,100485.06
2022-08-04T19:15:33.952Z,100488.22
2022-08-04T19:18:02.451Z,100490.59
2022-08-04T19:20:39.467Z,100501.16
2022-08-04T19:24:27.623Z,100494.31
2022-08-04T19:26:03.846Z,100508.47
2022-08-04T19:28:34.851Z,100509.34
2022-08-04T19:31:07.422Z,100515.66
2022-08-04T19:33:55.910Z,100529.34
2022-08-04T19:36:27.807Z,100530.28
2022-08-04T19:38:57.810Z,100532.09
2022-08-04T19:41:26.434Z,100541.44
2022-08-04T19:43:54.695Z,100539.25
2022-08-04T19:46:25.025Z,100546.06
2022-08-04T19:48:59.371Z,100550.19
2022-08-04T19:51:28.962Z,100550.25
2022-08-04T19:54:02.740Z,100564.75
2022-08-04T19:56:40.172Z,100561.38
2022-08-04T19:59:11.063Z,100563.31
2022-08-04T20:01:44.184Z,100564.31
2022-08-04T20:04:13.719Z,100572.41
2022-08-04T20:06:41.452Z,100577.25
2022-08-04T20:09:25.309Z,100582.06
2022-08-04T20:11:54.546Z,100588.28
2022-08-04T20:14:31.202Z,100584.50
2022-08-04T20:17:10.490Z,100582.97
2022-08-04T20:19:38.887Z,100589.34
2022-08-04T20:25:00.860Z,100587.81
2022-08-04T20:27:59.475Z,100576.34
2022-08-04T20:30:28.328Z,100589.75
2022-08-04T20:32:55.952Z,100587.53
2022-08-04T20:35:26.690Z,100588.19
2022-08-04T20:38:00.418Z,100589.75
2022-08-04T20:40:29.823Z,100592.84
2022-08-04T20:42:59.884Z,100592.84
2022-08-04T20:48:14.576Z,100583.59
2022-08-04T20:50:43.924Z,100591.31
2022-08-04T20:53:16.257Z,100596.94
2022-08-04T20:55:55.027Z,100594.75
2022-08-04T20:58:27.601Z,100597.66
2022-08-04T21:00:55.875Z,100596.81
2022-08-04T21:03:49.501Z,100600.44
2022-08-04T21:06:11.516Z,100599.56
2022-08-04T21:08:38.655Z,100598.91
2022-08-04T21:11:06.886Z,100597.00
2022-08-04T21:13:50.633Z,100588.09
2022-08-04T21:16:53.863Z,100595.28
2022-08-04T21:19:13.176Z,100587.91
2022-08-04T21:21:41.227Z,100596.66
2022-08-04T21:24:09.576Z,100595.28
2022-08-04T21:26:37.453Z,100610.38
2022-08-04T21:29:04.883Z,100602.50
2022-08-04T21:31:36.780Z,100612.63
2022-08-04T21:34:38.031Z,100612.47
2022-08-04T21:37:05.215Z,100617.63
2022-08-04T21:39:32.891Z,100614.03
2022-08-04T21:42:29.848Z,100615.75
2022-08-04T21:44:58.109Z,100612.13
2022-08-04T21:47:25.472Z,100613.84
2022-08-04T21:49:56.852Z,100617.78
2022-08-04T21:52:25.010Z,100613.00
2022-08-04T21:54:54.598Z,100615.22
2022-08-04T21:57:25.136Z,100618.13
2022-08-04T21:59:52.751Z,100614.53
2022-08-04T22:02:19.948Z,100607.81
2022-08-04T22:04:48.869Z,100616.25
2022-08-04T22:07:16.958Z,100613.16
2022-08-04T22:10:00.076Z,100618.66
2022-08-04T22:12:30.167Z,100613.13
2022-08-04T22:14:59.392Z,100614.34
2022-08-04T22:17:35.000Z,100611.94
2022-08-04T22:20:03.364Z,100616.22
2022-08-04T22:22:33.406Z,100614.66
2022-08-04T22:28:00.889Z,100615.09
2022-08-04T22:30:36.355Z,100606.19
2022-08-04T22:33:05.463Z,100603.75
2022-08-04T22:35:44.398Z,100610.31
2022-08-04T22:38:25.429Z,100596.91
2022-08-04T22:40:57.643Z,100599.16
2022-08-04T22:43:33.664Z,100602.94
2022-08-04T22:46:12.257Z,100609.06
2022-08-04T22:48:43.579Z,100598.56
2022-08-04T22:51:12.732Z,100612.25
2022-08-04T22:53:40.672Z,100600.56
2022-08-04T22:56:10.518Z,100607.25
2022-08-04T22:58:40.152Z,100604.13
2022-08-04T23:01:08.578Z,100612.34
2022-08-04T23:03:37.424Z,100604.78
2022-08-04T23:06:06.396Z,100602.91
2022-08-04T23:08:34.280Z,100600.09
2022-08-04T23:11:07.255Z,100599.03
2022-08-04T23:13:34.391Z,100597.88
2022-08-04T23:16:06.508Z,100594.13
2022-08-04T23:18:41.893Z,100595.31
2022-08-04T23:21:47.908Z,100593.72
2022-08-04T23:24:30.055Z,100594.88
2022-08-04T23:26:57.836Z,100597.63
2022-08-04T23:29:25.397Z,100587.81
2022-08-04T23:31:59.452Z,100587.09
2022-08-04T23:34:29.257Z,100585.31
2022-08-04T23:36:56.859Z,100583.72
2022-08-04T23:40:03.982Z,100592.44
2022-08-04T23:42:15.071Z,100587.63
2022-08-04T23:44:48.301Z,100591.41
2022-08-04T23:47:15.590Z,100586.56
2022-08-04T23:50:02.913Z,100587.69
2022-08-04T23:52:31.045Z,100591.09
2022-08-04T23:54:59.246Z,100589.28
2022-08-04T23:58:02.293Z,100586.34
